createdAt,value
2023-05-25T00:48:21.098Z,936.23
2023-05-25T00:49:14.807Z,936.22
2023-05-25T00:50:13.305Z,936.23
2023-05-25T00:51:15.587Z,936.19
2023-05-25T00:52:14.033Z,936.23
2023-05-25T00:53:13.732Z,936.20
2023-05-25T00:54:14.757Z,936.21
2023-05-25T00:55:14.977Z,936.19
2023-05-25T00:56:13.161Z,936.18
2023-05-25T00:57:13.159Z,936.17
2023-05-25T00:58:13.116Z,936.14
2023-05-25T00:59:13.243Z,936.17
2023-05-25T01:00:14.131Z,936.14
2023-05-25T01:01:13.194Z,936.16
2023-05-25T01:02:13.213Z,936.17
2023-05-25T01:03:13.144Z,936.22
2023-05-25T01:04:13.781Z,936.21
2023-05-25T01:05:13.129Z,936.20
2023-05-25T01:06:13.018Z,936.22
2023-05-25T01:07:14.693Z,936.24
2023-05-25T01:08:16.340Z,936.25
2023-05-25T01:09:13.096Z,936.26
2023-05-25T01:10:13.766Z,936.25
2023-05-25T01:11:14.608Z,936.22
2023-05-25T01:12:13.027Z,936.19
2023-05-25T01:13:13.045Z,936.23
2023-05-25T01:14:12.957Z,936.28
2023-05-25T01:15:12.954Z,936.27
2023-05-25T01:16:12.984Z,936.27
2023-05-25T01:17:16.326Z,936.24
2023-05-25T01:18:22.029Z,936.25
2023-05-25T01:19:12.967Z,936.25
2023-05-25T01:20:12.916Z,936.25
2023-05-25T01:21:12.944Z,936.25
2023-05-25T01:22:13.632Z,936.25
2023-05-25T01:23:13.552Z,936.24
2023-05-25T01:24:12.811Z,936.26
2023-05-25T01:25:14.456Z,936.31
2023-05-25T01:26:14.753Z,936.31
2023-05-25T01:27:13.582Z,936.31
2023-05-25T01:28:13.617Z,936.31
2023-05-25T01:29:12.828Z,936.31
2023-05-25T01:30:12.767Z,936.30
2023-05-25T01:31:12.761Z,936.31
2023-05-25T01:32:13.632Z,936.29
2023-05-25T01:33:12.848Z,936.24
2023-05-25T01:34:15.600Z,936.25
2023-05-25T01:35:12.792Z,936.22
2023-05-25T01:36:12.699Z,936.23
2023-05-25T01:37:12.770Z,936.22
2023-05-25T01:38:12.679Z,936.24
2023-05-25T01:39:13.609Z,936.23
2023-05-25T01:40:20.896Z,936.22
2023-05-25T01:41:13.245Z,936.18
2023-05-25T01:42:12.594Z,936.23
2023-05-25T01:43:12.646Z,936.21
2023-05-25T01:44:12.578Z,936.23
2023-05-25T01:45:14.581Z,936.20
2023-05-25T01:46:12.601Z,936.21
2023-05-25T01:47:13.378Z,936.23
2023-05-25T01:48:12.573Z,936.21
2023-05-25T01:49:13.485Z,936.21
2023-05-25T01:50:14.815Z,936.17
2023-05-25T01:51:12.561Z,936.17
2023-05-25T01:52:12.594Z,936.13
2023-05-25T01:53:12.592Z,936.15
2023-05-25T01:54:12.520Z,936.13
2023-05-25T01:55:13.159Z,936.06
2023-05-25T01:56:14.790Z,936.09
2023-05-25T01:57:13.189Z,936.09
2023-05-25T01:58:14.240Z,936.10
2023-05-25T02:00:29.465Z,936.11
2023-05-25T02:00:37.317Z,936.17
2023-05-25T02:01:35.646Z,936.12
2023-05-25T02:02:35.705Z,936.13
2023-05-25T02:03:37.139Z,936.11
2023-05-25T02:04:35.692Z,936.09
2023-05-25T02:05:36.113Z,936.09
2023-05-25T02:06:37.025Z,936.08
2023-05-25T02:07:35.610Z,936.05
2023-05-25T02:08:36.862Z,936.06
2023-05-25T02:09:59.347Z,936.05
2023-05-25T02:10:36.138Z,936.05
2023-05-25T02:11:37.799Z,936.08
2023-05-25T02:12:35.547Z,936.13
2023-05-25T02:13:36.557Z,936.11
2023-05-25T02:14:37.822Z,936.14
2023-05-25T02:15:35.521Z,936.13
2023-05-25T02:16:37.168Z,936.08
2023-05-25T02:17:36.294Z,936.11
2023-05-25T02:18:35.413Z,936.08
2023-05-25T02:19:35.429Z,936.07
2023-05-25T02:20:35.476Z,936.04
2023-05-25T02:21:36.667Z,936.05
2023-05-25T02:22:35.392Z,936.05
2023-05-25T02:23:35.348Z,936.02
2023-05-25T02:24:36.012Z,936.05
2023-05-25T02:25:35.339Z,936.02
2023-05-25T02:26:35.989Z,935.98
2023-05-25T02:27:36.910Z,936.09
2023-05-25T02:28:37.066Z,936.00
2023-05-25T02:29:35.284Z,935.97
2023-05-25T02:30:35.947Z,935.96
2023-05-25T09:00:45.213Z,935.34
2023-05-25T09:01:26.290Z,935.38
2023-05-25T09:02:26.873Z,935.35
2023-05-25T09:03:24.970Z,935.42
2023-05-25T09:04:24.863Z,935.39
2023-05-25T09:05:24.790Z,935.43
2023-05-25T09:06:30.542Z,935.45
2023-05-25T09:07:25.055Z,935.43
2023-05-25T09:08:24.754Z,935.49
2023-05-25T09:09:24.770Z,935.51
2023-05-25T09:10:24.803Z,935.50
2023-05-25T09:11:37.450Z,935.52
2023-05-25T09:12:26.666Z,935.46
2023-05-25T09:13:24.681Z,935.53
2023-05-25T09:14:25.515Z,935.53
2023-05-25T09:15:24.698Z,935.57
2023-05-25T09:16:24.778Z,935.58
2023-05-25T09:17:26.004Z,935.56
2023-05-25T09:18:24.686Z,935.62
2023-05-25T09:19:24.617Z,935.58
2023-05-25T09:20:25.325Z,935.55
2023-05-25T09:21:24.595Z,935.57
2023-05-25T09:22:25.968Z,935.64
2023-05-25T09:23:24.550Z,935.59
2023-05-25T09:24:25.091Z,935.62
2023-05-25T09:25:24.556Z,935.61
2023-05-25T09:26:25.936Z,935.57
2023-05-25T09:27:25.527Z,935.57
2023-05-25T09:28:27.680Z,935.57
2023-05-25T09:29:24.853Z,935.64
2023-05-25T09:30:24.574Z,935.65
2023-05-25T09:31:25.284Z,935.64
2023-05-25T09:32:24.601Z,935.62
2023-05-25T09:33:32.773Z,935.62
2023-05-25T09:35:34.410Z,935.66
2023-05-25T09:36:36.096Z,935.66
2023-05-25T09:37:35.420Z,935.65
2023-05-25T09:38:35.411Z,935.68
2023-05-25T09:39:35.358Z,935.68
2023-05-25T09:40:37.005Z,935.66
2023-05-25T09:41:35.328Z,935.68
2023-05-25T09:42:36.699Z,935.70
2023-05-25T09:43:44.606Z,935.73
2023-05-25T09:44:36.212Z,935.73
2023-05-25T09:45:36.671Z,935.73
2023-05-25T09:46:35.266Z,935.72
2023-05-25T09:47:35.194Z,935.71
2023-05-25T09:48:35.119Z,935.74
2023-05-25T09:49:36.856Z,935.72
2023-05-25T09:50:35.088Z,935.75
2023-05-25T09:51:35.122Z,935.76
2023-05-25T09:52:35.189Z,935.78
2023-05-25T09:53:35.088Z,935.78
2023-05-25T09:54:35.096Z,935.82
2023-05-25T09:55:51.981Z,935.79
2023-05-25T09:56:36.473Z,935.86
2023-05-25T09:57:35.034Z,935.83
2023-05-25T09:58:37.402Z,935.83
2023-05-25T09:59:37.920Z,935.84
2023-05-25T10:00:36.805Z,935.81
2023-05-25T10:01:36.543Z,935.83
2023-05-25T10:02:35.977Z,935.85
2023-05-25T10:03:35.704Z,935.87
2023-05-25T10:04:35.209Z,935.84
2023-05-25T10:05:34.940Z,935.86
2023-05-25T10:06:36.924Z,935.89
2023-05-25T10:07:35.693Z,935.90
2023-05-25T10:08:35.016Z,935.89
2023-05-25T10:09:35.608Z,935.96
2023-05-25T10:10:35.214Z,935.97
2023-05-25T10:11:37.692Z,936.01
2023-05-25T10:12:37.788Z,936.01
2023-05-25T10:13:36.703Z,936.01
2023-05-25T10:14:37.942Z,936.05
2023-05-25T10:15:34.848Z,936.03
2023-05-25T10:16:37.076Z,936.06
2023-05-25T10:17:34.940Z,936.05
2023-05-25T10:18:34.768Z,936.05
2023-05-25T10:19:34.886Z,936.00
2023-05-25T10:20:43.462Z,936.04
2023-05-25T10:21:35.888Z,936.06
2023-05-25T10:22:34.820Z,936.09
2023-05-25T10:23:34.752Z,936.12
2023-05-25T10:24:34.726Z,936.12
2023-05-25T10:25:34.776Z,936.14
2023-05-25T10:26:34.723Z,936.11
2023-05-25T10:27:34.694Z,936.12
2023-05-25T10:28:34.729Z,936.16
2023-05-25T10:29:34.773Z,936.16
2023-05-25T10:30:36.365Z,936.20
2023-05-25T10:31:34.657Z,936.20
2023-05-25T10:32:35.909Z,936.20
2023-05-25T10:33:35.006Z,936.25
2023-05-25T10:34:34.670Z,936.23
2023-05-25T10:35:46.961Z,936.26
2023-05-25T10:36:56.218Z,936.30
2023-05-25T10:37:34.611Z,936.32
2023-05-25T10:38:35.223Z,936.33
2023-05-25T10:39:36.090Z,936.33
2023-05-25T10:40:34.539Z,936.30
2023-05-25T10:41:35.749Z,936.35
2023-05-25T10:42:37.350Z,936.36
2023-05-25T10:43:35.257Z,936.38
2023-05-25T10:44:36.702Z,936.38
2023-05-25T10:45:36.443Z,936.43
2023-05-25T10:46:34.555Z,936.41
2023-05-25T10:47:37.369Z,936.42
2023-05-25T10:48:34.442Z,936.43
2023-05-25T10:49:35.211Z,936.46
2023-05-25T10:50:34.405Z,936.47
2023-05-25T10:51:36.144Z,936.47
2023-05-25T10:52:38.752Z,936.53
2023-05-25T10:53:35.918Z,936.52
2023-05-25T10:54:35.150Z,936.53
2023-05-25T10:55:34.445Z,936.53
2023-05-25T10:56:34.909Z,936.58
2023-05-25T10:57:35.196Z,936.57
2023-05-25T10:58:34.905Z,936.53
2023-05-25T10:59:35.204Z,936.53
2023-05-25T11:00:35.232Z,936.58
2023-05-25T11:01:35.317Z,936.61
2023-05-25T11:02:35.233Z,936.59
2023-05-25T11:03:37.214Z,936.59
2023-05-25T11:04:34.380Z,936.63
2023-05-25T11:05:35.588Z,936.63
2023-05-25T11:06:35.657Z,936.67
2023-05-25T11:07:34.309Z,936.70
2023-05-25T11:08:34.190Z,936.66
2023-05-25T11:09:34.595Z,936.69
2023-05-25T11:10:34.187Z,936.77
2023-05-25T11:11:36.514Z,936.75
2023-05-25T11:12:34.713Z,936.77
2023-05-25T11:13:34.228Z,936.76
2023-05-25T11:14:34.972Z,936.76
2023-05-25T11:15:34.832Z,936.77
2023-05-25T11:16:39.916Z,936.79
2023-05-25T11:17:34.735Z,936.76
2023-05-25T11:18:35.462Z,936.77
2023-05-25T11:19:34.118Z,936.77
2023-05-25T11:20:34.858Z,936.81
2023-05-25T11:21:38.313Z,936.87
2023-05-25T11:22:37.592Z,936.82
2023-05-25T11:23:34.075Z,936.81
2023-05-25T11:24:34.139Z,936.82
2023-05-25T11:25:35.405Z,936.82
2023-05-25T11:26:34.766Z,936.82
2023-05-25T11:27:34.323Z,936.86
2023-05-25T11:28:34.032Z,936.85
2023-05-25T11:29:33.986Z,936.84
2023-05-25T11:30:33.966Z,936.85
2023-05-25T11:31:41.245Z,936.91
2023-05-25T11:32:34.063Z,936.89
2023-05-25T11:33:34.041Z,936.96
2023-05-25T11:34:34.702Z,936.93
2023-05-25T11:35:33.940Z,936.89
2023-05-25T11:36:33.902Z,936.98
2023-05-25T11:37:36.740Z,936.90
2023-05-25T11:38:36.892Z,936.89
2023-05-25T11:39:35.056Z,936.92
2023-05-25T11:40:35.887Z,936.93
2023-05-25T11:41:33.885Z,936.98
2023-05-25T11:42:33.907Z,936.95
2023-05-25T11:43:34.707Z,936.97
2023-05-25T11:44:34.714Z,936.93
2023-05-25T11:45:33.833Z,936.98
2023-05-25T11:46:34.706Z,936.97
2023-05-25T11:47:35.856Z,937.03
2023-05-25T11:48:33.751Z,937.04
2023-05-25T11:49:33.820Z,937.03
2023-05-25T11:50:33.763Z,937.16
2023-05-25T11:51:34.443Z,937.03
2023-05-25T11:52:34.515Z,937.07
2023-05-25T11:53:34.582Z,937.09
2023-05-25T11:54:35.405Z,937.14
2023-05-25T11:55:33.705Z,937.12
2023-05-25T11:56:35.990Z,937.21
2023-05-25T11:57:33.685Z,937.19
2023-05-25T11:58:33.651Z,937.17
2023-05-25T11:59:33.672Z,937.15
2023-05-25T12:00:33.620Z,937.20
2023-05-25T12:01:33.641Z,937.23
2023-05-25T12:02:34.326Z,937.22
2023-05-25T12:03:35.487Z,937.24
2023-05-25T12:04:34.374Z,937.27
2023-05-25T12:05:34.458Z,937.29
2023-05-25T12:06:33.624Z,937.28
2023-05-25T12:07:33.576Z,937.37
2023-05-25T12:08:33.598Z,937.34
2023-05-25T12:09:34.361Z,937.31
2023-05-25T12:10:33.495Z,937.34
2023-05-25T12:11:34.521Z,937.32
2023-05-25T12:12:34.205Z,937.35
2023-05-25T12:13:35.932Z,937.39
2023-05-25T12:14:33.493Z,937.37
2023-05-25T12:15:33.484Z,937.38
2023-05-25T12:16:33.452Z,937.42
2023-05-25T12:17:34.679Z,937.42
2023-05-25T12:18:33.458Z,937.40
2023-05-25T12:19:33.436Z,937.44
2023-05-25T12:20:33.479Z,937.42
2023-05-25T12:21:33.613Z,937.40
2023-05-25T12:22:33.388Z,937.44
2023-05-25T12:23:33.427Z,937.42
2023-05-25T12:24:33.409Z,937.47
2023-05-25T12:25:46.592Z,937.42
2023-05-25T12:26:33.300Z,937.44
2023-05-25T12:27:34.249Z,937.43
2023-05-25T12:28:33.299Z,937.41
2023-05-25T12:29:33.359Z,937.43
2023-05-25T12:30:33.358Z,937.41
2023-05-25T12:31:33.368Z,937.46
2023-05-25T12:32:33.279Z,937.47
2023-05-25T12:33:34.273Z,937.44
2023-05-25T12:34:33.342Z,937.47
2023-05-25T12:35:33.292Z,937.49
2023-05-25T12:36:33.885Z,937.45
2023-05-25T12:37:33.227Z,937.44
2023-05-25T12:38:33.999Z,937.44
2023-05-25T12:39:42.028Z,937.43
2023-05-25T12:40:33.178Z,937.39
2023-05-25T12:41:56.061Z,937.39
2023-05-25T12:42:33.279Z,937.38
2023-05-25T12:43:34.684Z,937.36
2023-05-25T12:44:59.204Z,937.39
2023-05-25T12:45:34.865Z,937.41
2023-05-25T16:02:32.708Z,935.14
2023-05-25T16:03:12.687Z,935.16
2023-05-25T16:04:12.804Z,935.12
2023-05-25T16:09:48.923Z,935.02
2023-05-25T16:10:51.256Z,934.99
2023-05-25T16:11:51.589Z,935.01
2023-05-25T16:12:49.911Z,935.00
2023-05-25T16:13:53.979Z,934.96
2023-05-25T16:14:54.236Z,934.95
2023-05-25T16:15:49.194Z,935.04
2023-05-25T20:22:34.040Z,934.36
2023-05-25T20:23:15.739Z,934.33
2023-05-25T20:24:14.698Z,934.36
2023-05-25T20:25:15.818Z,934.36
2023-05-25T20:26:13.902Z,934.37
2023-05-25T20:27:15.377Z,934.36
2023-05-25T20:28:14.055Z,934.36
2023-05-25T20:29:13.861Z,934.39
2023-05-25T20:30:15.498Z,934.42
2023-05-25T20:31:16.989Z,934.42
2023-05-25T20:32:13.922Z,934.42
2023-05-25T20:33:13.739Z,934.43
2023-05-25T20:34:13.793Z,934.44
2023-05-25T20:35:13.710Z,934.44
2023-05-25T20:36:18.074Z,934.42
2023-05-25T20:37:14.481Z,934.45
2023-05-25T20:38:14.813Z,934.42
2023-05-25T20:39:13.676Z,934.40
2023-05-25T20:40:15.515Z,934.46
2023-05-25T20:41:17.313Z,934.50
2023-05-25T20:42:14.482Z,934.49
2023-05-25T20:43:15.328Z,934.51
2023-05-25T20:44:15.921Z,934.55
2023-05-25T20:45:13.657Z,934.54
2023-05-25T20:46:14.239Z,934.56
2023-05-25T20:47:13.596Z,934.55
2023-05-25T20:48:14.591Z,934.53
2023-05-25T20:49:13.565Z,934.52
2023-05-25T20:50:13.583Z,934.54
2023-05-25T20:51:13.609Z,934.52
2023-05-25T20:52:15.084Z,934.50
2023-05-25T20:53:14.167Z,934.54
2023-05-25T20:54:13.524Z,934.53
2023-05-25T20:55:13.503Z,934.51
2023-05-25T20:56:13.514Z,934.55
2023-05-25T20:57:13.458Z,934.58
2023-05-25T20:58:13.524Z,934.58
2023-05-25T20:59:14.075Z,934.60
2023-05-25T21:00:15.597Z,934.56
2023-05-25T21:01:14.701Z,934.58
2023-05-25T21:02:13.469Z,934.63
2023-05-25T21:03:14.129Z,934.61
2023-05-25T21:04:13.494Z,934.63
2023-05-25T21:05:14.587Z,934.61
2023-05-25T21:06:14.193Z,934.66
2023-05-25T21:07:13.410Z,934.66
2023-05-25T21:08:14.130Z,934.69
2023-05-25T21:09:15.233Z,934.70
2023-05-25T21:10:13.450Z,934.70
2023-05-25T21:11:13.353Z,934.71
2023-05-25T21:12:14.007Z,934.71
2023-05-25T21:13:14.777Z,934.73
2023-05-25T21:14:14.179Z,934.69
2023-05-25T21:15:13.286Z,934.76
2023-05-25T21:16:15.211Z,934.77
2023-05-25T21:17:13.282Z,934.77
2023-05-25T21:18:14.663Z,934.78
2023-05-25T21:19:15.634Z,934.82
2023-05-25T21:20:14.025Z,934.84
2023-05-25T21:21:13.250Z,934.86
2023-05-25T21:22:13.222Z,934.89
2023-05-25T21:23:14.182Z,934.87
2023-05-25T21:24:13.259Z,934.91
2023-05-25T21:25:13.201Z,934.92
2023-05-25T21:26:14.871Z,934.89
2023-05-25T21:27:15.264Z,934.94
2023-05-25T21:28:14.154Z,934.87
2023-05-25T21:29:14.020Z,934.86
2023-05-25T21:30:13.985Z,934.85
2023-05-25T21:31:13.107Z,934.85
2023-05-25T21:32:13.078Z,934.89
2023-05-25T21:33:13.198Z,934.86
2023-05-25T21:34:28.364Z,934.92
2023-05-25T21:35:38.689Z,934.93
2023-05-25T21:36:35.119Z,934.92
2023-05-25T21:37:13.098Z,934.91
2023-05-25T21:38:14.834Z,934.97
2023-05-25T21:39:14.620Z,934.96
2023-05-25T21:40:14.496Z,934.96
2023-05-25T21:41:14.291Z,934.98
2023-05-25T21:42:15.836Z,935.03
2023-05-25T21:43:13.008Z,934.95
2023-05-25T21:45:36.185Z,935.03
2023-05-25T21:46:35.482Z,935.02
2023-05-25T21:47:37.232Z,935.04
2023-05-25T21:48:36.914Z,935.04
2023-05-25T21:49:39.574Z,935.07
2023-05-25T21:50:36.161Z,935.06
2023-05-25T21:51:40.776Z,935.07
2023-05-25T21:52:36.781Z,935.09
2023-05-25T21:53:36.025Z,935.08
2023-05-25T21:54:35.478Z,935.12
2023-05-25T21:55:35.382Z,935.10
2023-05-25T21:56:37.737Z,935.09
2023-05-25T21:57:36.138Z,935.08
2023-05-25T21:58:35.313Z,935.10
2023-05-25T21:59:35.256Z,935.11
2023-05-25T22:00:36.493Z,935.08
2023-05-25T22:01:36.307Z,935.09
2023-05-25T22:02:36.694Z,935.09
2023-05-25T22:03:36.173Z,935.12
2023-05-25T22:04:35.306Z,935.07
2023-05-25T22:05:35.214Z,935.08
2023-05-25T22:06:35.161Z,935.09
2023-05-25T22:07:35.144Z,935.07
2023-05-25T22:08:36.101Z,935.10
2023-05-25T22:09:35.168Z,935.06
2023-05-25T22:10:35.145Z,935.11
2023-05-25T22:11:35.090Z,935.07
2023-05-25T22:14:04.181Z,935.15
2023-05-25T22:15:05.264Z,935.15
2023-05-25T22:16:04.377Z,935.20
2023-05-25T22:17:04.543Z,935.18
2023-05-25T22:18:04.381Z,935.18
2023-05-25T22:19:04.714Z,935.21
2023-05-25T22:20:07.828Z,935.21
2023-05-25T22:21:05.276Z,935.22
2023-05-25T22:22:04.278Z,935.20
2023-05-25T22:23:04.314Z,935.19
2023-05-25T22:24:05.175Z,935.22
2023-05-25T22:25:04.216Z,935.27
2023-05-25T22:26:04.225Z,935.29
2023-05-25T22:27:04.316Z,935.29
2023-05-25T22:28:04.216Z,935.24
2023-05-25T22:29:05.185Z,935.24
2023-05-25T22:30:06.024Z,935.26
2023-05-25T22:31:04.249Z,935.26
2023-05-25T22:32:04.115Z,935.25
2023-05-25T22:33:04.247Z,935.26
2023-05-25T22:34:04.141Z,935.22
2023-05-25T22:35:04.110Z,935.25
2023-05-25T22:36:04.089Z,935.26
2023-05-25T22:37:04.747Z,935.27
2023-05-25T22:38:04.701Z,935.29
2023-05-25T22:39:04.262Z,935.27
2023-05-25T22:40:07.188Z,935.25
2023-05-25T22:41:04.068Z,935.29
2023-05-25T22:42:04.014Z,935.31
2023-05-25T22:43:04.667Z,935.34
2023-05-25T22:44:04.738Z,935.39
2023-05-25T22:45:04.659Z,935.39
2023-05-25T22:46:04.808Z,935.38
2023-05-25T22:47:03.980Z,935.38
2023-05-25T22:48:03.954Z,935.43
2023-05-25T22:49:08.336Z,935.39
2023-05-25T22:50:05.863Z,935.41
2023-05-25T22:51:04.641Z,935.41
2023-05-25T22:52:03.916Z,935.45
2023-05-25T22:53:03.933Z,935.39
2023-05-25T22:54:03.857Z,935.40
2023-05-25T22:55:03.892Z,935.43
2023-05-25T22:56:03.868Z,935.43
2023-05-25T22:57:04.016Z,935.42
2023-05-25T22:58:03.883Z,935.43
2023-05-25T22:59:07.016Z,935.43
2023-05-25T23:00:05.634Z,935.46
2023-05-25T23:01:03.839Z,935.47
2023-05-25T23:02:04.038Z,935.49
2023-05-25T23:03:04.490Z,935.48
2023-05-25T23:04:03.948Z,935.50
2023-05-25T23:05:04.622Z,935.53
2023-05-25T23:06:03.753Z,935.53
2023-05-25T23:07:03.862Z,935.54
2023-05-25T23:08:03.769Z,935.57
2023-05-25T23:09:03.735Z,935.55
2023-05-25T23:10:03.688Z,935.56
2023-05-25T23:11:03.698Z,935.55
2023-05-25T23:12:03.661Z,935.57
2023-05-25T23:13:04.742Z,935.58
2023-05-25T23:14:03.706Z,935.58
2023-05-25T23:15:03.663Z,935.57
2023-05-25T23:16:03.694Z,935.57
2023-05-25T23:17:03.671Z,935.65
2023-05-25T23:18:03.681Z,935.63
2023-05-25T23:19:03.707Z,935.61
2023-05-25T23:20:03.670Z,935.63
2023-05-25T23:21:03.642Z,935.63
2023-05-25T23:22:04.180Z,935.65
2023-05-25T23:23:03.580Z,935.67
2023-05-25T23:24:03.527Z,935.66
2023-05-25T23:25:04.239Z,935.71
2023-05-25T23:26:03.584Z,935.70
2023-05-25T23:27:04.501Z,935.70
2023-05-25T23:28:04.157Z,935.71
2023-05-25T23:29:03.642Z,935.68
2023-05-25T23:30:03.472Z,935.71
2023-05-25T23:31:04.208Z,935.71
2023-05-25T23:32:03.445Z,935.70
2023-05-25T23:33:03.537Z,935.72
2023-05-25T23:34:05.904Z,935.74
2023-05-25T23:35:03.449Z,935.79
2023-05-25T23:36:03.426Z,935.75
2023-05-25T23:37:06.437Z,935.79
2023-05-25T23:38:04.245Z,935.80
2023-05-25T23:39:03.397Z,935.82
2023-05-25T23:40:03.341Z,935.82
2023-05-25T23:41:07.828Z,935.79
2023-05-25T23:42:04.882Z,935.83
2023-05-25T23:43:03.421Z,935.84
2023-05-25T23:44:03.296Z,935.78
2023-05-25T23:45:03.329Z,935.80
2023-05-25T23:46:03.292Z,935.83
2023-05-25T23:47:03.296Z,935.83
2023-05-25T23:48:03.332Z,935.83
2023-05-25T23:49:03.297Z,935.81
2023-05-25T23:50:03.243Z,935.84
2023-05-25T23:51:03.974Z,935.81
2023-05-25T23:52:05.073Z,935.84
2023-05-25T23:53:03.281Z,935.82
2023-05-25T23:54:03.235Z,935.84
2023-05-25T23:55:05.550Z,935.77
2023-05-25T23:56:04.515Z,935.85
2023-05-25T23:57:04.848Z,935.84
2023-05-25T23:58:03.149Z,935.83
2023-05-25T23:59:03.160Z,935.80
